createdAt,value
2023-12-04T00:02:16.053Z,18.45
2023-12-04T00:04:44.082Z,18.80
2023-12-04T00:07:10.812Z,15.43
2023-12-04T00:09:37.543Z,14.25
2023-12-04T00:12:04.522Z,15.25
2023-12-04T00:14:31.192Z,17.13
2023-12-04T00:16:57.801Z,17.20
2023-12-04T00:19:24.797Z,14.90
2023-12-04T00:21:51.927Z,17.30
2023-12-04T00:24:18.681Z,16.35
2023-12-04T00:26:45.320Z,18.45
2023-12-04T00:29:12.600Z,18.33
2023-12-04T00:31:39.219Z,16.60
2023-12-04T00:34:05.911Z,18.05
2023-12-04T00:36:32.649Z,19.13
2023-12-04T00:38:59.709Z,18.88
2023-12-04T00:41:26.336Z,18.90
2023-12-04T00:43:52.989Z,21.15
2023-12-04T00:46:19.601Z,22.63
2023-12-04T00:48:47.366Z,19.50
2023-12-04T00:51:14.271Z,21.13
2023-12-04T00:53:40.889Z,19.65
2023-12-04T00:56:08.095Z,18.70
2023-12-04T00:58:34.715Z,19.13
2023-12-04T01:01:01.449Z,19.15
2023-12-04T01:03:28.130Z,20.85
2023-12-04T01:05:54.775Z,15.80
2023-12-04T01:08:22.301Z,19.50
2023-12-04T01:10:49.118Z,19.35
2023-12-04T01:13:15.710Z,22.65
2023-12-04T01:15:43.732Z,20.10
2023-12-04T01:18:10.478Z,20.27
2023-12-04T01:20:37.545Z,21.73
2023-12-04T01:25:31.133Z,19.40
2023-12-04T01:27:57.785Z,19.98
2023-12-04T01:30:24.600Z,21.67
2023-12-04T01:32:52.191Z,19.02
2023-12-04T01:35:18.855Z,19.40
2023-12-04T01:37:45.474Z,18.33
2023-12-04T01:40:12.609Z,20.38
2023-12-04T01:45:06.703Z,18.45
2023-12-04T01:47:33.589Z,18.52
2023-12-04T01:50:00.685Z,19.10
2023-12-04T01:52:27.376Z,17.88
2023-12-04T01:54:54.365Z,19.63
2023-12-04T01:57:21.223Z,17.42
2023-12-04T01:59:48.141Z,18.05
2023-12-04T02:02:15.008Z,17.27
2023-12-04T02:04:41.937Z,20.38
2023-12-04T02:07:10.517Z,19.05
2023-12-04T02:09:38.670Z,22.45
2023-12-04T02:12:06.262Z,20.42
2023-12-04T02:14:32.962Z,21.10
2023-12-04T02:17:03.066Z,21.60
2023-12-04T02:19:30.025Z,21.08
2023-12-04T02:21:56.660Z,19.67
2023-12-04T02:24:23.827Z,23.10
2023-12-04T02:26:57.344Z,26.67
2023-12-04T02:29:48.699Z,24.13
2023-12-04T02:32:18.432Z,25.08
2023-12-04T02:34:47.216Z,30.42
2023-12-04T02:37:15.947Z,27.90
2023-12-04T02:39:43.948Z,28.05
2023-12-04T02:42:10.866Z,28.63
2023-12-04T02:44:37.466Z,26.48
2023-12-04T02:47:04.233Z,27.52
2023-12-04T02:49:30.887Z,26.92
2023-12-04T02:51:58.627Z,26.95
2023-12-04T02:54:25.370Z,27.55
2023-12-04T02:56:52.002Z,27.73
2023-12-04T02:59:18.661Z,23.65
2023-12-04T03:01:45.296Z,23.55
2023-12-04T03:04:14.919Z,25.02
2023-12-04T03:06:51.590Z,24.10
2023-12-04T03:09:18.249Z,29.00
2023-12-04T03:11:44.883Z,27.83
2023-12-04T03:14:11.573Z,26.75
2023-12-04T03:16:38.260Z,25.30
2023-12-04T03:19:05.317Z,23.52
2023-12-04T03:21:32.112Z,22.02
2023-12-04T03:23:58.834Z,25.67
2023-12-04T03:26:25.433Z,22.52
2023-12-04T03:28:52.045Z,22.35
2023-12-04T03:31:18.750Z,28.48
2023-12-04T03:33:45.441Z,24.55
2023-12-04T03:36:12.211Z,23.90
2023-12-04T03:38:38.920Z,25.10
2023-12-04T03:41:05.700Z,24.02
2023-12-04T03:43:32.349Z,23.65
2023-12-04T03:45:59.034Z,25.08
2023-12-04T03:48:25.724Z,26.02
2023-12-04T03:50:52.466Z,23.25
2023-12-04T03:53:19.084Z,23.40
2023-12-04T03:55:45.870Z,23.23
2023-12-04T03:58:12.576Z,25.00
2023-12-04T04:00:42.831Z,25.95
2023-12-04T04:03:30.364Z,21.73
2023-12-04T04:05:57.002Z,22.88
2023-12-04T04:08:23.644Z,22.80
2023-12-04T04:10:50.255Z,19.88
2023-12-04T04:13:16.904Z,20.35
2023-12-04T04:15:43.670Z,23.38
2023-12-04T04:18:10.396Z,23.58
2023-12-04T04:20:37.053Z,19.80
2023-12-04T04:23:03.704Z,20.13
2023-12-04T04:25:30.406Z,21.45
2023-12-04T04:27:57.240Z,21.23
2023-12-04T04:30:24.121Z,21.90
2023-12-04T04:32:50.792Z,18.02
2023-12-04T04:35:17.454Z,17.67
2023-12-04T04:37:45.995Z,22.25
2023-12-04T04:40:13.573Z,20.38
2023-12-04T04:42:40.212Z,20.25
2023-12-04T04:45:07.400Z,19.88
2023-12-04T04:47:34.137Z,19.40
2023-12-04T04:50:00.781Z,19.30
2023-12-04T04:52:28.791Z,17.40
2023-12-04T04:54:56.896Z,20.25
2023-12-04T04:57:23.615Z,18.05
2023-12-04T04:59:50.192Z,17.77
2023-12-04T05:02:23.317Z,16.95
2023-12-04T05:04:50.042Z,20.20
2023-12-04T05:07:16.781Z,19.50
2023-12-04T05:09:43.420Z,16.45
2023-12-04T05:12:10.125Z,17.35
2023-12-04T05:14:36.732Z,18.08
2023-12-04T05:17:03.443Z,15.48
2023-12-04T05:19:30.097Z,13.75
2023-12-04T05:21:56.758Z,17.00
2023-12-04T05:24:23.445Z,18.67
2023-12-04T05:26:50.049Z,16.80
2023-12-04T05:29:16.658Z,17.50
2023-12-04T05:31:43.311Z,17.63
2023-12-04T05:34:10.096Z,18.20
2023-12-04T05:36:36.811Z,15.80
2023-12-04T05:39:04.306Z,17.42
2023-12-04T05:41:31.358Z,14.13
2023-12-04T05:43:58.002Z,14.13
2023-12-04T05:46:24.703Z,14.52
2023-12-04T05:48:51.666Z,12.07
2023-12-04T05:51:18.363Z,14.82
2023-12-04T05:53:45.056Z,13.07
2023-12-04T05:56:11.976Z,11.55
2023-12-04T05:58:38.856Z,13.52
2023-12-04T06:01:07.217Z,12.32
2023-12-04T06:03:39.970Z,12.68
2023-12-04T06:06:07.157Z,11.88
2023-12-04T06:08:34.133Z,9.82
2023-12-04T06:11:00.787Z,12.50
2023-12-04T06:13:27.420Z,10.38
2023-12-04T06:15:54.101Z,12.32
2023-12-04T06:18:21.860Z,14.15
2023-12-04T06:20:48.656Z,16.33
2023-12-04T06:23:15.822Z,15.63
2023-12-04T06:25:42.734Z,14.68
2023-12-04T06:28:09.961Z,15.18
2023-12-04T06:33:03.948Z,14.13
2023-12-04T06:35:31.009Z,13.63
2023-12-04T06:38:05.366Z,14.77
2023-12-04T06:40:33.259Z,15.30
2023-12-04T06:43:00.393Z,14.48
2023-12-04T06:45:28.384Z,17.48
2023-12-04T06:47:55.560Z,18.23
2023-12-04T06:50:22.176Z,17.60
2023-12-04T06:52:48.791Z,18.73
2023-12-04T06:55:15.591Z,16.80
2023-12-04T06:57:42.272Z,18.58
2023-12-04T07:00:21.189Z,19.25
2023-12-04T07:02:50.650Z,17.23
2023-12-04T07:05:18.101Z,20.15
2023-12-04T07:10:15.935Z,19.42
2023-12-04T07:12:43.930Z,19.60
2023-12-04T07:15:12.319Z,20.67
2023-12-04T07:17:40.853Z,22.10
2023-12-04T07:20:07.994Z,21.60
2023-12-04T07:22:38.349Z,21.33
2023-12-04T07:25:08.403Z,21.00
2023-12-04T07:27:36.124Z,19.67
2023-12-04T07:30:04.570Z,20.17
2023-12-04T07:32:31.635Z,24.27
2023-12-04T07:34:58.376Z,20.65
2023-12-04T07:37:25.008Z,19.45
2023-12-04T07:39:51.673Z,20.23
2023-12-04T07:42:18.347Z,20.90
2023-12-04T07:44:45.189Z,21.58
2023-12-04T07:47:11.866Z,21.48
2023-12-04T07:49:38.955Z,20.17
2023-12-04T07:52:05.853Z,20.88
2023-12-04T07:57:00.800Z,21.95
2023-12-04T07:59:27.424Z,18.63
2023-12-04T08:01:54.099Z,18.05
2023-12-04T08:04:20.875Z,18.75
2023-12-04T08:06:47.634Z,16.15
2023-12-04T08:09:14.305Z,18.73
2023-12-04T08:11:40.992Z,19.42
2023-12-04T08:14:07.970Z,19.88
2023-12-04T08:16:34.536Z,19.58
2023-12-04T08:19:01.386Z,20.48
2023-12-04T08:21:28.290Z,19.58
2023-12-04T08:23:54.993Z,20.95
2023-12-04T08:26:25.716Z,18.73
2023-12-04T08:28:55.313Z,20.10
2023-12-04T08:31:21.893Z,19.58
2023-12-04T08:33:49.100Z,20.88
2023-12-04T08:38:43.314Z,19.67
2023-12-04T08:41:09.977Z,19.02
2023-12-04T08:43:36.608Z,16.02
2023-12-04T08:46:03.497Z,20.25
2023-12-04T08:48:31.138Z,19.70
2023-12-04T08:50:57.960Z,17.08
2023-12-04T08:53:24.607Z,18.50
2023-12-04T08:55:53.288Z,16.55
2023-12-04T08:58:20.245Z,15.55
2023-12-04T09:00:46.968Z,16.88
2023-12-04T09:03:18.750Z,19.85
2023-12-04T09:05:53.443Z,17.17
2023-12-04T09:08:31.352Z,16.58
2023-12-04T09:11:18.173Z,16.73
2023-12-04T09:13:49.545Z,13.98
2023-12-04T09:16:16.396Z,14.38
2023-12-04T09:18:43.224Z,13.52
2023-12-04T09:21:10.122Z,12.88
2023-12-04T09:23:36.882Z,13.13
2023-12-04T09:26:04.182Z,13.65
2023-12-04T09:28:30.827Z,15.15
2023-12-04T09:30:57.795Z,13.98
2023-12-04T09:33:24.557Z,15.88
2023-12-04T09:35:51.372Z,14.23
2023-12-04T09:38:18.043Z,15.23
2023-12-04T09:40:44.764Z,17.88
2023-12-04T09:43:11.841Z,16.60
2023-12-04T09:45:39.772Z,20.13
2023-12-04T09:48:07.584Z,15.52
2023-12-04T09:50:34.792Z,15.93
2023-12-04T09:53:03.283Z,19.38
2023-12-04T09:55:29.895Z,14.85
2023-12-04T09:57:57.989Z,12.20
2023-12-04T10:00:25.503Z,14.80
2023-12-04T10:02:53.406Z,15.63
2023-12-04T10:05:20.126Z,13.65
2023-12-04T10:07:46.781Z,19.42
2023-12-04T10:10:15.387Z,17.67
2023-12-04T10:12:44.194Z,16.52
2023-12-04T10:15:12.656Z,17.10
2023-12-04T10:17:41.434Z,17.20
2023-12-04T10:20:14.100Z,14.95
2023-12-04T10:22:52.402Z,16.45
2023-12-04T10:25:19.447Z,15.77
2023-12-04T10:27:47.579Z,15.10
2023-12-04T10:30:32.443Z,12.73
2023-12-04T10:33:02.311Z,12.85
2023-12-04T10:35:38.617Z,14.25
2023-12-04T10:38:07.192Z,12.73
2023-12-04T10:40:35.783Z,14.25
2023-12-04T10:43:18.922Z,16.58
2023-12-04T10:45:46.765Z,14.50
2023-12-04T10:48:15.368Z,16.40
2023-12-04T10:50:44.702Z,15.55
2023-12-04T10:53:15.899Z,14.32
2023-12-04T10:55:43.416Z,16.55
2023-12-04T10:58:12.020Z,15.93
2023-12-04T11:00:47.301Z,17.30
2023-12-04T11:03:29.602Z,17.27
2023-12-04T11:06:02.644Z,18.67
2023-12-04T11:08:33.375Z,19.77
2023-12-04T11:11:12.862Z,17.98
2023-12-04T11:13:44.900Z,20.70
2023-12-04T11:16:14.209Z,22.23
2023-12-04T11:18:45.222Z,21.83
2023-12-04T11:21:13.049Z,18.65
2023-12-04T11:23:41.029Z,21.23
2023-12-04T11:26:09.677Z,17.67
2023-12-04T11:28:39.568Z,18.83
2023-12-04T11:31:07.632Z,19.50
2023-12-04T11:33:39.068Z,20.88
2023-12-04T11:36:13.232Z,18.45
2023-12-04T11:38:49.822Z,20.63
2023-12-04T11:41:27.234Z,23.73
2023-12-04T11:43:57.092Z,18.60
2023-12-04T11:46:26.542Z,17.50
2023-12-04T11:48:58.741Z,18.58
2023-12-04T11:51:48.784Z,18.25
2023-12-04T11:54:16.672Z,22.42
2023-12-04T11:57:12.104Z,18.92
2023-12-04T11:59:39.615Z,19.17
2023-12-04T12:02:14.925Z,17.77
2023-12-04T12:04:41.923Z,20.95
2023-12-04T12:07:08.808Z,20.27
2023-12-04T12:09:35.739Z,17.70
2023-12-04T12:12:03.909Z,19.30
2023-12-04T12:14:31.213Z,21.40
2023-12-04T12:19:26.758Z,16.95
2023-12-04T12:21:53.441Z,17.88
2023-12-04T12:24:20.223Z,18.08
2023-12-04T12:26:48.473Z,15.98
2023-12-04T12:29:15.217Z,18.58
2023-12-04T12:31:41.834Z,16.13
2023-12-04T12:34:08.598Z,16.55
2023-12-04T12:36:35.542Z,15.52
2023-12-04T12:39:04.971Z,15.40
2023-12-04T12:41:32.382Z,16.42
2023-12-04T12:43:59.484Z,13.98
2023-12-04T12:46:27.053Z,14.82
2023-12-04T12:48:54.159Z,16.13
2023-12-04T12:51:21.216Z,14.18
2023-12-04T12:53:52.347Z,14.07
2023-12-04T12:56:19.883Z,19.17
2023-12-04T12:58:46.584Z,15.30
2023-12-04T13:01:13.866Z,15.43
2023-12-04T13:06:08.198Z,13.25
2023-12-04T13:08:34.845Z,16.42
2023-12-04T13:11:01.453Z,11.85
2023-12-04T13:13:28.683Z,12.95
2023-12-04T13:15:55.988Z,13.90
2023-12-04T13:18:22.752Z,11.82
2023-12-04T13:20:49.494Z,13.90
2023-12-04T13:23:16.485Z,10.98
2023-12-04T13:25:43.818Z,12.57
2023-12-04T13:28:19.566Z,11.80
2023-12-04T13:30:50.515Z,12.15
2023-12-04T13:33:17.186Z,12.07
2023-12-04T13:35:43.885Z,13.75
2023-12-04T13:38:18.608Z,17.65
2023-12-04T13:41:00.600Z,12.88
2023-12-04T13:43:48.837Z,11.55
2023-12-04T13:46:15.502Z,12.43
2023-12-04T13:48:42.341Z,10.88
2023-12-04T13:51:11.306Z,11.95
2023-12-04T13:53:46.064Z,11.63
2023-12-04T13:56:22.033Z,12.70
2023-12-04T13:58:56.777Z,11.88
2023-12-04T14:01:31.204Z,10.32
2023-12-04T14:04:13.929Z,12.93
2023-12-04T14:06:41.303Z,12.27
2023-12-04T14:11:45.759Z,12.30
2023-12-04T14:14:14.310Z,12.68
2023-12-04T14:16:43.322Z,16.70
2023-12-04T14:19:10.385Z,13.20
2023-12-04T14:21:37.786Z,14.90
2023-12-04T14:24:04.613Z,12.23
2023-12-04T14:26:31.249Z,13.25
2023-12-04T14:28:59.196Z,12.88
2023-12-04T14:31:26.565Z,19.08
2023-12-04T14:36:22.061Z,14.50
2023-12-04T14:38:49.954Z,13.98
2023-12-04T14:41:16.775Z,15.88
2023-12-04T14:43:44.032Z,18.83
2023-12-04T14:46:11.327Z,15.30
2023-12-04T14:51:12.889Z,13.75
2023-12-04T14:53:51.985Z,13.63
2023-12-04T14:56:37.662Z,16.27
2023-12-04T14:59:04.411Z,15.00
2023-12-04T15:01:49.990Z,15.93
2023-12-04T15:04:35.371Z,14.15
2023-12-04T15:07:17.174Z,14.85
2023-12-04T15:09:46.488Z,13.35
2023-12-04T15:12:24.154Z,12.23
2023-12-04T15:15:12.789Z,12.85
2023-12-04T15:18:14.742Z,13.02
2023-12-04T15:20:41.956Z,12.68
2023-12-04T15:23:10.427Z,12.43
2023-12-04T15:25:37.656Z,11.77
2023-12-04T15:30:35.652Z,16.80
2023-12-04T15:33:03.434Z,11.70
2023-12-04T15:35:30.205Z,13.63
2023-12-04T15:37:56.855Z,12.55
2023-12-04T15:40:23.891Z,12.45
2023-12-04T15:42:50.549Z,12.93
2023-12-04T15:45:18.140Z,11.10
2023-12-04T15:47:44.861Z,11.55
2023-12-04T15:50:11.510Z,11.15
2023-12-04T15:52:42.780Z,12.07
2023-12-04T15:55:12.374Z,11.10
2023-12-04T15:57:40.020Z,11.10
2023-12-04T16:00:16.932Z,11.75
2023-12-04T16:02:43.714Z,11.40
2023-12-04T16:05:12.288Z,12.68
2023-12-04T16:07:39.424Z,11.85
2023-12-04T16:10:09.987Z,11.77
2023-12-04T16:12:37.758Z,11.95
2023-12-04T16:15:11.372Z,11.25
2023-12-04T16:17:39.214Z,11.70
2023-12-04T16:20:14.010Z,9.38
2023-12-04T16:22:43.182Z,11.70
2023-12-04T16:25:19.366Z,9.90
2023-12-04T16:27:47.068Z,11.63
2023-12-04T16:30:14.278Z,11.55
2023-12-04T16:32:41.515Z,11.90
2023-12-04T16:37:37.670Z,9.98
2023-12-04T16:40:05.660Z,10.95
2023-12-04T16:42:33.140Z,10.25
2023-12-04T16:45:00.338Z,11.35
2023-12-04T16:47:27.381Z,12.18
2023-12-04T16:49:54.562Z,10.73
2023-12-04T16:54:52.417Z,11.73
2023-12-04T16:57:19.318Z,10.25
2023-12-04T16:59:46.262Z,11.77
2023-12-04T17:02:13.272Z,11.18
2023-12-04T17:04:40.817Z,10.30
2023-12-04T17:07:07.677Z,12.00
2023-12-04T17:09:35.081Z,11.20
2023-12-04T17:12:01.802Z,11.50
2023-12-04T17:14:28.427Z,12.38
2023-12-04T17:19:22.453Z,10.93
2023-12-04T17:21:49.232Z,9.75
2023-12-04T17:24:15.884Z,12.85
2023-12-04T17:26:42.546Z,9.93
2023-12-04T17:29:09.180Z,12.15
2023-12-04T17:31:36.506Z,11.65
2023-12-04T17:36:29.862Z,12.25
2023-12-04T17:38:56.443Z,10.88
2023-12-04T17:41:23.635Z,11.57
2023-12-04T17:43:50.244Z,9.82
2023-12-04T17:46:16.857Z,10.90
2023-12-04T17:48:45.126Z,11.25
2023-12-04T17:51:18.574Z,10.68
2023-12-04T17:53:45.267Z,9.35
2023-12-04T17:56:12.205Z,9.43
2023-12-04T17:58:39.050Z,9.82
2023-12-04T18:01:07.057Z,10.38
2023-12-04T18:03:37.171Z,8.85
2023-12-04T18:06:05.983Z,9.55
2023-12-04T18:08:35.353Z,9.48
2023-12-04T18:11:02.293Z,9.82
2023-12-04T18:13:28.950Z,10.02
2023-12-04T18:15:55.973Z,10.18
2023-12-04T18:18:22.878Z,8.77
2023-12-04T18:20:49.788Z,9.43
2023-12-04T18:23:16.393Z,8.63
2023-12-04T18:25:43.635Z,11.57
2023-12-04T18:28:11.371Z,11.77
2023-12-04T18:30:38.475Z,10.80
2023-12-04T18:35:33.255Z,11.40
2023-12-04T18:38:08.453Z,11.52
2023-12-04T18:40:35.840Z,10.00
2023-12-04T18:43:03.171Z,10.98
2023-12-04T18:45:30.307Z,9.57
2023-12-04T18:50:31.752Z,11.63
2023-12-04T18:53:02.175Z,9.98
2023-12-04T18:55:29.674Z,10.73
2023-12-04T18:57:56.479Z,9.25
2023-12-04T19:00:25.523Z,13.25
2023-12-04T19:02:53.402Z,9.13
2023-12-04T19:05:20.884Z,8.75
2023-12-04T19:07:47.687Z,10.73
2023-12-04T19:10:14.466Z,9.88
2023-12-04T19:12:41.171Z,9.23
2023-12-04T19:15:10.958Z,9.73
2023-12-04T19:17:38.297Z,9.40
2023-12-04T19:22:32.865Z,8.73
2023-12-04T19:27:26.041Z,9.82
2023-12-04T19:29:52.857Z,11.77
2023-12-04T19:32:21.603Z,16.20
2023-12-04T19:34:49.534Z,10.60
2023-12-04T19:37:16.275Z,8.98
2023-12-04T19:39:43.101Z,8.85
2023-12-04T19:42:09.829Z,9.40
2023-12-04T19:44:36.488Z,10.70
2023-12-04T19:47:03.157Z,10.75
2023-12-04T19:49:30.842Z,9.68
2023-12-04T19:51:57.597Z,9.80
2023-12-04T19:54:24.306Z,10.32
2023-12-04T19:56:51.196Z,11.95
2023-12-04T19:59:18.052Z,10.75
2023-12-04T20:01:44.716Z,10.63
2023-12-04T20:04:11.621Z,10.35
2023-12-04T20:06:38.476Z,11.63
2023-12-04T20:09:05.972Z,11.02
2023-12-04T20:11:32.803Z,10.88
2023-12-04T20:13:59.680Z,12.48
2023-12-04T20:16:27.192Z,12.32
2023-12-04T20:18:54.904Z,11.73
2023-12-04T20:23:49.120Z,12.27
2023-12-04T20:26:15.794Z,11.85
2023-12-04T20:28:43.029Z,12.63
2023-12-04T20:31:09.836Z,10.57
2023-12-04T20:33:36.636Z,11.57
2023-12-04T20:36:08.639Z,11.35
2023-12-04T20:38:35.644Z,11.18
2023-12-04T20:41:02.393Z,11.60
2023-12-04T20:43:29.745Z,10.40
2023-12-04T20:45:56.473Z,11.57
2023-12-04T20:48:23.271Z,11.38
2023-12-04T20:50:51.324Z,12.35
2023-12-04T20:53:17.986Z,14.10
2023-12-04T20:55:47.052Z,10.65
2023-12-04T20:58:13.931Z,10.75
2023-12-04T21:00:42.971Z,11.20
2023-12-04T21:03:10.822Z,11.93
2023-12-04T21:05:37.903Z,11.18
2023-12-04T21:08:05.323Z,11.23
2023-12-04T21:10:32.547Z,11.25
2023-12-04T21:12:59.180Z,10.02
2023-12-04T21:15:25.888Z,10.00
2023-12-04T21:17:52.575Z,10.13
2023-12-04T21:20:19.447Z,10.82
2023-12-04T21:22:46.140Z,11.15
2023-12-04T21:25:12.849Z,11.40
2023-12-04T21:27:39.595Z,10.35
2023-12-04T21:30:12.573Z,9.82
2023-12-04T21:32:39.903Z,11.52
2023-12-04T21:35:06.866Z,9.98
2023-12-04T21:37:34.540Z,9.65
2023-12-04T21:40:01.266Z,10.82
2023-12-04T21:42:27.936Z,9.35
2023-12-04T21:44:54.624Z,10.65
2023-12-04T21:47:22.300Z,10.20
2023-12-04T21:49:49.021Z,11.30
2023-12-04T21:52:15.975Z,10.07
2023-12-04T21:54:42.820Z,10.70
2023-12-04T21:57:09.597Z,10.30
2023-12-04T21:59:36.310Z,11.55
2023-12-04T22:02:03.731Z,11.27
2023-12-04T22:04:30.546Z,13.13
2023-12-04T22:06:57.381Z,10.95
2023-12-04T22:09:25.832Z,10.77
2023-12-04T22:11:52.787Z,11.23
2023-12-04T22:14:19.511Z,12.40
2023-12-04T22:16:46.132Z,11.57
2023-12-04T22:19:12.867Z,12.15
2023-12-04T22:21:39.910Z,12.10
2023-12-04T22:24:07.040Z,13.43
2023-12-04T22:29:00.342Z,11.77
2023-12-04T22:31:26.963Z,12.30
2023-12-04T22:33:54.050Z,11.35
2023-12-04T22:38:47.952Z,12.90
2023-12-04T22:41:14.621Z,14.23
2023-12-04T22:43:42.796Z,13.38
2023-12-04T22:46:10.342Z,11.45
2023-12-04T22:48:38.595Z,11.80
2023-12-04T22:51:08.766Z,10.88
2023-12-04T22:53:35.472Z,11.30
2023-12-04T22:56:02.229Z,11.35
2023-12-04T22:58:29.702Z,12.52
2023-12-04T23:00:57.036Z,12.82
2023-12-04T23:03:24.129Z,12.25
2023-12-04T23:05:50.943Z,11.48
2023-12-04T23:08:18.799Z,13.25
2023-12-04T23:10:45.714Z,11.75
2023-12-04T23:13:13.352Z,13.38
2023-12-04T23:15:40.342Z,11.63
2023-12-04T23:18:07.214Z,10.80
2023-12-04T23:20:33.970Z,11.65
2023-12-04T23:23:00.565Z,13.50
2023-12-04T23:25:27.202Z,12.40
2023-12-04T23:27:53.839Z,12.10
2023-12-04T23:30:21.485Z,11.43
2023-12-04T23:32:48.424Z,13.75
2023-12-04T23:35:15.139Z,12.05
2023-12-04T23:37:41.737Z,10.63
2023-12-04T23:40:09.116Z,11.43
2023-12-04T23:42:36.115Z,12.07
2023-12-04T23:47:29.607Z,12.32
2023-12-04T23:49:56.261Z,11.15
2023-12-04T23:52:22.898Z,11.52
2023-12-04T23:54:49.574Z,12.15
2023-12-04T23:57:16.200Z,12.20
2023-12-04T23:59:43.070Z,9.35
